This is the latest recevied weather packets stored in our database for station/object TG5ALY-15. If no packets are shown the sender has not sent any weather packets the latest 1 day(s).
| Time | Temp. | Humidity | Pressure | Rain* | Wind** | Luminosity | Snow |
|---|---|---|---|---|---|---|---|
| 1778094701 | 25° C | 23% | 1029.2 hPa | 0 mm | - | 981 W/m² | - |
| 1778093500 | 25.56° C | 25% | 1029.5 hPa | 0 mm | - | 988 W/m² | - |
| 1778089892 | 24.44° C | 27% | 1030.4 hPa | 0 mm | - | 987 W/m² | - |
| 1778087482 | 23.33° C | 24% | 1030.8 hPa | 0 mm | - | 949 W/m² | - |
| 1778085079 | 23.33° C | 24% | 1030.8 hPa | 0 mm | - | 863 W/m² | - |
| 1778081073 | 18.89° C | 66% | 1031.3 hPa | 0 mm | - | 666 W/m² | - |
| 1778067839 | 10° C | 94% | 1030.4 hPa | 0 mm | - | 5 W/m² | - |
| 1778066634 | 10° C | 94% | 1030.4 hPa | 0 mm | - | 0 W/m² | - |
| 1778065430 | 10.56° C | 93% | 1030.4 hPa | 0 mm | - | 0 W/m² | - |
| 1778064224 | 11.11° C | 93% | 1030.4 hPa | 0 mm | - | 0 W/m² | - |
| 1778063020 | 11.11° C | 92% | 1029.9 hPa | 0 mm | - | 0 W/m² | - |
| 1778061815 | 11.11° C | 92% | 1029.9 hPa | 0 mm | - | 0 W/m² | - |
| 1778059407 | 11.67° C | 89% | 1030.4 hPa | 0 mm | - | 0 W/m² | - |
| 1778058202 | 11.67° C | 91% | 1030.4 hPa | 0 mm | - | 0 W/m² | - |
| 1778057000 | 11.67° C | 91% | 1030.4 hPa | 0 mm | - | 0 W/m² | - |
| 1778054599 | 12.22° C | 91% | 1030.4 hPa | 0 mm | - | 0 W/m² | - |
| 1778053394 | 11.67° C | 91% | 1030.4 hPa | 0 mm | - | 0 W/m² | - |
| 1778052189 | 12.22° C | 90% | 1030.4 hPa | 0 mm | - | 0 W/m² | - |
| 1778050985 | 12.78° C | 88% | 1030.8 hPa | 0 mm | - | 0 W/m² | - |
| 1778046173 | 12.78° C | 90% | 1031.3 hPa | 0 mm | - | 0 W/m² | - |
| 1778044970 | 13.33° C | 88% | 1031.7 hPa | 0 mm | - | 0 W/m² | - |
| 1778043770 | 13.89° C | 88% | 1031.7 hPa | 0 mm | - | 0 W/m² | - |
| 1778041367 | 13.89° C | 88% | 1031.7 hPa | 0 mm | - | 0 W/m² | - |
| 1778040168 | 14.44° C | 88% | 1031.3 hPa | 0 mm | - | 0 W/m² | - |
| 1778038967 | 14.44° C | 88% | 1030.8 hPa | 0 mm | - | 0 W/m² | - |
* Rain latest hour (hover to see other rain measurements)
** Current wind speed in m/s (hover to see current wind gust speed)